Time;durP1;ratioP1;P1;durP2;ratioP2;P2;SDS_P1;SDS_P2;PMS_P1;PMS_P2;Temp;Humidity;BMP_temperature;BMP_pressure;BME280_temperature;BME280_humidity;BME280_pressure;Samples;Min_cycle;Max_cycle;Signal;HPM_P1;HPM_P2
2022/04/22 00:00:32;;;;;;;13.85;6.60;;;;;;;8.60;77.37;101277.38;2079317;28;43218;-63
2022/04/22 00:01:35;;;;;;;11.27;6.60;;;;;;;8.57;77.46;101283.63;2071038;28;45141;-63
2022/04/22 00:02:38;;;;;;;12.23;6.65;;;;;;;8.56;77.36;101270.28;2079585;28;44319;-63
2022/04/22 00:03:40;;;;;;;18.27;7.53;;;;;;;8.58;77.86;101271.19;2079079;28;43043;-63
2022/04/22 00:04:42;;;;;;;16.63;6.65;;;;;;;8.58;76.98;101273.84;2080254;28;45940;-63
2022/04/22 00:05:43;;;;;;;13.68;6.47;;;;;;;8.56;77.97;101280.97;2079583;28;45472;-63
2022/04/22 00:06:45;;;;;;;12.40;7.05;;;;;;;8.52;77.47;101269.44;2079344;28;46134;-63
2022/04/22 00:07:47;;;;;;;14.05;6.65;;;;;;;8.51;76.96;101273.03;2079085;28;44246;-63
2022/04/22 00:08:49;;;;;;;11.32;5.80;;;;;;;8.52;78.03;101273.91;2079645;28;45686;-63
2022/04/22 00:09:50;;;;;;;12.85;6.30;;;;;;;8.50;77.58;101265.03;2079701;28;43843;-64
2022/04/22 00:12:12;;;;;;;14.43;6.47;;;;;;;8.51;77.81;101269.47;2079072;28;46716;-63
2022/04/22 00:13:14;;;;;;;12.15;7.03;;;;;;;8.50;77.16;101276.56;2080038;28;44062;-63
2022/04/22 00:14:16;;;;;;;12.75;6.95;;;;;;;8.48;77.62;101273.03;2086958;28;45356;-63
2022/04/22 00:15:17;;;;;;;11.88;6.45;;;;;;;8.47;77.88;101270.38;2087301;28;45729;-63
2022/04/22 00:16:19;;;;;;;12.90;7.25;;;;;;;8.47;77.10;101270.38;2078470;28;44530;-62
2022/04/22 00:17:21;;;;;;;11.70;6.47;;;;;;;8.46;77.48;101268.63;2079205;28;45431;-63
2022/04/22 00:18:23;;;;;;;12.65;6.57;;;;;;;8.48;77.76;101266.81;2079189;28;44646;-63
2022/04/22 00:19:25;;;;;;;16.70;7.47;;;;;;;8.48;77.23;101266.81;2079420;28;44103;-62
2022/04/22 00:20:29;;;;;;;14.95;6.40;;;;;;;8.48;76.87;101256.16;2087478;28;38575;-63
2022/04/22 00:21:31;;;;;;;15.70;6.20;;;;;;;8.45;77.70;101259.72;2087284;28;45818;-63
2022/04/22 00:22:36;;;;;;;12.55;6.55;;;;;;;8.45;77.01;101256.16;2079563;28;34577;-63
2022/04/22 00:23:38;;;;;;;11.27;6.45;;;;;;;8.45;77.09;101258.84;2087456;28;39572;-63
2022/04/22 00:24:40;;;;;;;13.68;6.70;;;;;;;8.43;77.10;101264.19;2086328;28;43754;-63
2022/04/22 00:25:44;;;;;;;11.38;6.68;;;;;;;8.43;77.09;101257.97;2079733;28;45014;-63
2022/04/22 00:26:46;;;;;;;12.48;6.70;;;;;;;8.40;76.81;101250.84;2079624;28;44208;-63
2022/04/22 00:27:50;;;;;;;14.50;6.85;;;;;;;8.40;77.70;101258.88;2083407;28;20965;-63
2022/04/22 00:28:53;;;;;;;14.30;6.20;;;;;;;8.39;76.81;101257.06;2080505;28;20082;-63
2022/04/22 00:29:54;;;;;;;11.45;6.22;;;;;;;8.38;76.80;101255.28;2079161;28;45256;-63
2022/04/22 00:30:56;;;;;;;12.85;6.70;;;;;;;8.40;77.36;101253.53;2079133;28;46489;-63
2022/04/22 00:31:58;;;;;;;15.10;6.40;;;;;;;8.42;76.57;101254.44;2079657;28;44206;-62
2022/04/22 00:33:00;;;;;;;12.52;6.15;;;;;;;8.41;76.97;101255.28;2079973;28;23950;-63
2022/04/22 00:34:07;;;;;;;13.65;6.40;;;;;;;8.41;76.89;101245.47;2080691;28;20042;-63
2022/04/22 00:35:09;;;;;;;13.18;6.47;;;;;;;8.40;77.24;101251.72;2087165;28;42949;-63
2022/04/22 00:36:11;;;;;;;13.77;6.15;;;;;;;8.39;77.24;101241.94;2087568;28;38446;-63
2022/04/22 00:37:12;;;;;;;11.23;5.88;;;;;;;8.39;76.97;101251.75;2079205;28;44386;-63
2022/04/22 00:38:14;;;;;;;12.73;6.57;;;;;;;8.37;76.45;101245.53;2079701;28;44068;-63
2022/04/22 00:39:16;;;;;;;14.52;6.32;;;;;;;8.39;77.69;101257.06;2079562;28;45709;-63
2022/04/22 00:40:18;;;;;;;10.88;6.18;;;;;;;8.38;77.09;101249.97;2079823;28;43174;-63
2022/04/22 00:41:20;;;;;;;13.75;5.68;;;;;;;8.37;76.66;101250.88;2087753;28;20814;-63
2022/04/22 00:42:22;;;;;;;10.63;5.72;;;;;;;8.36;77.18;101247.34;2086848;28;44364;-63
2022/04/22 00:43:26;;;;;;;15.68;6.25;;;;;;;8.34;77.21;101249.09;2079879;28;45442;-63
2022/04/22 00:44:28;;;;;;;10.57;5.38;;;;;;;8.35;76.96;101261.56;2079436;28;45324;-63
2022/04/22 00:45:30;;;;;;;10.73;6.03;;;;;;;8.34;77.43;101254.44;2080307;28;20050;-64
2022/04/22 00:46:33;;;;;;;10.50;5.60;;;;;;;8.32;76.73;101256.25;2079487;28;45297;-63
2022/04/22 00:47:35;;;;;;;9.80;5.47;;;;;;;8.31;76.77;101259.81;2079279;28;46512;-63
2022/04/22 00:48:37;;;;;;;9.52;5.15;;;;;;;8.31;76.42;101249.16;2079694;28;43871;-63
2022/04/22 00:49:39;;;;;;;9.82;5.25;;;;;;;8.29;76.78;101242.03;2087223;28;31438;-63
2022/04/22 00:50:42;;;;;;;13.13;5.55;;;;;;;8.30;76.42;101247.38;2087153;28;44609;-63
2022/04/22 00:51:44;;;;;;;12.68;5.85;;;;;;;8.32;76.19;101250.91;2086491;28;43951;-64
2022/04/22 00:52:46;;;;;;;10.90;5.70;;;;;;;8.30;75.99;101244.69;2086832;28;44805;-64
2022/04/22 00:53:51;;;;;;;10.88;5.15;;;;;;;8.30;76.48;101243.81;2079325;28;44743;-63
2022/04/22 00:54:53;;;;;;;9.40;5.40;;;;;;;8.32;75.98;101245.56;2087252;28;44268;-63
2022/04/22 00:55:55;;;;;;;12.63;5.43;;;;;;;8.28;75.88;101238.50;2086277;28;36989;-64
2022/04/22 00:56:57;;;;;;;8.85;4.95;;;;;;;8.27;75.83;101242.06;2078335;28;42956;-63
2022/04/22 00:57:59;;;;;;;10.20;5.22;;;;;;;8.28;75.74;101248.28;2078804;28;44644;-64
2022/04/22 00:59:02;;;;;;;12.00;4.75;;;;;;;8.27;75.22;101249.19;2086901;28;45380;-63
2022/04/22 01:00:05;;;;;;;9.80;4.43;;;;;;;8.27;74.86;101239.38;2070442;28;46657;-63
2022/04/22 01:01:07;;;;;;;10.63;4.55;;;;;;;8.26;74.85;101250.97;2079807;28;38441;-63
2022/04/22 01:02:09;;;;;;;9.27;4.30;;;;;;;8.29;74.14;101239.38;2086479;28;45347;-63
2022/04/22 01:03:10;;;;;;;7.90;4.10;;;;;;;8.30;73.62;101242.03;2079702;28;45722;-63
2022/04/22 01:09:47;;;;;;;11.23;3.63;;;;;;;8.29;72.42;101234.03;2079355;28;46541;-62
2022/04/22 01:10:51;;;;;;;8.27;4.13;;;;;;;8.27;73.03;101228.72;2078507;28;44831;-63
2022/04/22 01:11:53;;;;;;;7.18;3.83;;;;;;;8.25;72.83;101243.84;2079461;28;45550;-62
2022/04/22 01:12:55;;;;;;;9.73;3.95;;;;;;;8.23;72.09;101234.97;2078519;28;43006;-62
2022/04/22 01:13:58;;;;;;;6.90;3.30;;;;;;;8.21;72.17;101228.78;2079018;28;45282;-62
2022/04/22 01:15:00;;;;;;;7.85;3.70;;;;;;;8.19;72.52;101235.91;2086204;28;44013;-62
2022/04/22 01:16:02;;;;;;;9.75;3.40;;;;;;;8.17;72.97;101227.91;2087366;28;43568;-63
2022/04/22 01:17:04;;;;;;;5.78;3.30;;;;;;;8.17;72.78;101229.72;2086678;28;35502;-62
2022/04/22 01:18:06;;;;;;;6.43;3.30;;;;;;;8.17;71.88;101235.03;2086681;28;45804;-62
2022/04/22 01:19:08;;;;;;;8.95;3.60;;;;;;;8.13;71.91;101227.94;2078540;28;45607;-64
2022/04/22 01:20:09;;;;;;;7.68;3.60;;;;;;;8.11;72.81;101224.41;2079277;28;44906;-64
2022/04/22 01:21:11;;;;;;;8.73;3.35;;;;;;;8.11;72.48;101224.41;2079390;28;35905;-63
2022/04/22 01:22:13;;;;;;;9.27;3.38;;;;;;;8.05;72.88;101225.34;2087108;28;45524;-64
2022/04/22 01:23:15;;;;;;;6.90;3.28;;;;;;;8.02;72.64;101222.69;2086622;28;44640;-63
2022/04/22 01:24:17;;;;;;;7.35;3.53;;;;;;;8.01;72.74;101224.50;2071101;28;45200;-63
2022/04/22 01:25:18;;;;;;;7.82;3.50;;;;;;;7.98;72.76;101227.16;2078501;28;44951;-63
2022/04/22 01:26:20;;;;;;;6.05;2.92;;;;;;;7.97;72.88;101227.22;2079420;28;44430;-63
2022/04/22 01:27:23;;;;;;;6.88;3.60;;;;;;;7.95;73.03;101224.56;2078534;28;36694;-63
2022/04/22 01:28:25;;;;;;;5.95;3.42;;;;;;;7.94;72.66;101227.22;2070903;28;45572;-62
2022/04/22 01:29:27;;;;;;;6.07;3.30;;;;;;;7.91;72.88;101221.91;2070864;28;46073;-63
2022/04/22 01:30:28;;;;;;;10.00;3.40;;;;;;;7.89;72.50;101221.03;2078659;28;43096;-63
2022/04/22 01:31:30;;;;;;;6.43;3.20;;;;;;;7.88;72.81;101220.16;2086472;28;46146;-63
2022/04/22 01:32:32;;;;;;;7.75;3.15;;;;;;;7.87;72.69;101217.50;2086764;28;45542;-62
2022/04/22 01:33:34;;;;;;;6.78;3.42;;;;;;;7.88;72.78;101217.50;2078774;28;44804;-63
2022/04/22 01:34:37;;;;;;;5.60;3.10;;;;;;;7.86;72.33;101223.72;2086615;28;44474;-63
2022/04/22 01:35:39;;;;;;;5.13;2.95;;;;;;;7.83;72.52;101220.19;2085798;28;45468;-63
2022/04/22 01:36:41;;;;;;;6.55;3.15;;;;;;;7.81;72.90;101221.09;2078688;28;46008;-63
2022/04/22 01:37:43;;;;;;;7.65;3.15;;;;;;;7.79;72.65;101221.09;2086025;28;45374;-63
2022/04/22 01:38:45;;;;;;;7.72;2.85;;;;;;;7.79;72.14;101226.44;2078433;28;44785;-64
2022/04/22 01:39:46;;;;;;;7.82;3.05;;;;;;;7.77;72.67;101220.25;2078975;28;43354;-63
2022/04/22 01:40:48;;;;;;;5.93;3.17;;;;;;;7.74;72.76;101214.91;2079709;28;43923;-63
2022/04/22 01:41:51;;;;;;;6.53;3.05;;;;;;;7.71;72.72;101216.72;2078740;28;44410;-63
2022/04/22 01:42:55;;;;;;;4.80;2.95;;;;;;;7.68;72.82;101214.06;2080253;28;20057;-63
2022/04/22 01:43:57;;;;;;;6.07;2.70;;;;;;;7.68;72.71;101214.06;2079063;28;43855;-63
2022/04/22 01:44:58;;;;;;;5.00;2.70;;;;;;;7.63;72.89;101212.31;2079340;28;44700;-63
2022/04/22 01:46:00;;;;;;;6.00;2.78;;;;;;;7.61;73.10;101211.47;2078490;28;45686;-63
2022/04/22 01:47:03;;;;;;;6.70;2.58;;;;;;;7.60;73.01;101217.66;2079271;28;46183;-63
2022/04/22 01:48:05;;;;;;;7.57;3.53;;;;;;;7.59;72.97;101221.25;2079910;28;20109;-63
2022/04/22 01:49:07;;;;;;;5.38;2.85;;;;;;;7.58;73.30;101213.25;2079311;28;46591;-63
2022/04/22 01:50:09;;;;;;;7.50;2.95;;;;;;;7.56;73.11;101215.91;2079011;28;44658;-63
2022/04/22 01:51:11;;;;;;;6.97;2.95;;;;;;;7.56;73.24;101215.03;2079042;28;45404;-63
2022/04/22 01:52:13;;;;;;;7.32;2.90;;;;;;;7.52;73.42;101206.19;2078853;28;46169;-63
2022/04/22 01:53:14;;;;;;;7.72;3.17;;;;;;;7.54;73.19;101219.50;2086468;28;42092;-63
2022/04/22 01:54:17;;;;;;;7.72;3.40;;;;;;;7.52;73.30;101208.84;2086152;28;44458;-63
2022/04/22 01:55:19;;;;;;;6.55;3.10;;;;;;;7.50;73.74;101210.66;2086659;28;44437;-63
2022/04/22 01:56:21;;;;;;;6.63;2.75;;;;;;;7.47;73.87;101213.31;2085487;28;44167;-63
2022/04/22 01:57:24;;;;;;;8.38;3.03;;;;;;;7.45;73.51;101215.13;2079108;28;20964;-63
2022/04/22 01:58:25;;;;;;;5.90;2.90;;;;;;;7.43;73.21;101209.78;2078902;28;45784;-63
2022/04/22 01:59:27;;;;;;;7.70;3.40;;;;;;;7.44;73.48;101213.31;2086497;28;42852;-63
2022/04/22 02:00:29;;;;;;;7.47;3.10;;;;;;;7.41;73.56;101211.59;2086600;28;40714;-63
2022/04/22 02:01:30;;;;;;;6.22;2.95;;;;;;;7.41;73.52;101202.69;2078598;28;44106;-63
2022/04/22 02:02:32;;;;;;;7.57;3.38;;;;;;;7.38;73.76;101208.03;2079064;28;45002;-63
2022/04/22 02:03:34;;;;;;;5.70;2.60;;;;;;;7.35;73.75;101205.38;2079105;28;44850;-63
2022/04/22 02:04:36;;;;;;;7.65;3.33;;;;;;;7.33;73.75;101204.53;2078873;28;44282;-63
2022/04/22 02:05:40;;;;;;;9.43;3.20;;;;;;;7.33;74.16;101201.84;2087642;28;26405;-63
2022/04/22 02:06:41;;;;;;;6.15;3.30;;;;;;;7.30;73.97;101205.41;2086037;28;42765;-63
2022/04/22 02:07:43;;;;;;;6.60;2.90;;;;;;;7.28;74.18;101199.19;2079238;28;25995;-63
2022/04/22 02:08:45;;;;;;;6.22;3.28;;;;;;;7.26;74.10;101211.66;2078808;28;43292;-63
2022/04/22 02:09:47;;;;;;;7.65;3.10;;;;;;;7.23;74.34;101201.00;2079222;28;44263;-63
2022/04/22 02:10:48;;;;;;;6.75;2.63;;;;;;;7.20;74.21;101201.91;2078673;28;46260;-62
2022/04/22 02:11:50;;;;;;;7.28;3.00;;;;;;;7.18;74.76;101202.81;2078870;28;43849;-63
2022/04/22 02:12:54;;;;;;;8.68;3.13;;;;;;;7.17;74.95;101207.25;2079123;28;38902;-63
2022/04/22 02:13:56;;;;;;;6.20;3.47;;;;;;;7.15;74.36;101203.72;2079545;28;42101;-63
2022/04/22 02:14:59;;;;;;;6.60;3.72;;;;;;;7.13;74.85;101196.63;2079175;28;45197;-63
2022/04/22 02:16:00;;;;;;;7.07;2.92;;;;;;;7.09;75.05;101201.09;2079029;28;46184;-63
2022/04/22 02:17:02;;;;;;;7.32;3.53;;;;;;;7.06;75.18;101201.09;2079998;28;43181;-63
2022/04/22 02:18:04;;;;;;;5.47;2.70;;;;;;;7.02;75.51;101207.34;2081521;28;23095;-63
2022/04/22 02:19:06;;;;;;;6.60;3.03;;;;;;;7.01;75.33;101197.56;2079977;28;44841;-63
2022/04/22 02:20:10;;;;;;;8.35;3.30;;;;;;;6.97;75.75;101201.13;2080705;28;42781;-63
2022/04/22 02:21:12;;;;;;;4.95;2.97;;;;;;;6.92;75.27;101202.94;2080661;28;43497;-63
2022/04/22 02:22:14;;;;;;;6.20;3.47;;;;;;;6.93;75.96;101207.34;2080517;28;43271;-63
2022/04/22 02:23:17;;;;;;;6.78;3.00;;;;;;;6.90;76.29;101207.38;2081249;28;20902;-63
2022/04/22 02:24:18;;;;;;;6.78;3.70;;;;;;;6.87;76.24;101201.19;2080149;28;46341;-63
2022/04/22 02:25:22;;;;;;;4.47;2.70;;;;;;;6.85;75.97;101192.28;2080059;28;45256;-63
2022/04/22 02:26:24;;;;;;;7.85;3.53;;;;;;;6.81;76.13;101201.19;2080792;28;41004;-63
2022/04/22 02:28:46;;;;;;;6.22;2.95;;;;;;;6.75;76.62;101193.22;2080250;28;45543;-63
2022/04/22 02:29:48;;;;;;;7.60;3.28;;;;;;;6.72;76.61;101198.53;2080240;28;44466;-63
2022/04/22 02:30:49;;;;;;;5.70;3.38;;;;;;;6.68;77.14;101202.13;2080147;28;43467;-63
2022/04/22 02:31:52;;;;;;;7.15;3.28;;;;;;;6.66;76.98;101194.13;2080515;28;25812;-63
2022/04/22 02:32:54;;;;;;;6.90;3.17;;;;;;;6.64;77.25;101205.66;2087785;28;44647;-63
2022/04/22 02:33:56;;;;;;;6.00;2.83;;;;;;;6.60;76.76;101199.44;2086955;28;45128;-63
2022/04/22 02:34:59;;;;;;;7.93;3.35;;;;;;;6.61;77.27;101200.34;2081457;28;20078;-63
2022/04/22 02:36:02;;;;;;;6.18;3.70;;;;;;;6.59;77.23;101204.81;2080426;28;42892;-63
2022/04/22 02:37:04;;;;;;;5.40;3.50;;;;;;;6.56;77.59;101197.69;2080540;28;45785;-63
2022/04/22 02:38:08;;;;;;;6.70;3.88;;;;;;;6.53;77.72;101195.03;2080845;28;20139;-63
2022/04/22 02:39:10;;;;;;;7.05;3.20;;;;;;;6.51;78.34;101196.81;2080637;28;45118;-63
2022/04/22 02:40:11;;;;;;;5.53;3.00;;;;;;;6.49;78.01;101198.59;2080297;28;41137;-63
2022/04/22 02:45:28;;;;;;;8.30;3.53;;;;;;;6.38;78.34;101198.63;2079905;28;43875;-65
2022/04/22 02:46:30;;;;;;;5.78;3.38;;;;;;;6.34;78.81;101191.53;2079580;28;46379;-63
2022/04/22 02:47:32;;;;;;;7.95;4.20;;;;;;;6.30;78.87;101192.44;2080531;28;44498;-63
2022/04/22 02:48:34;;;;;;;6.40;3.50;;;;;;;6.28;78.82;101191.53;2080160;28;43785;-63
2022/04/22 02:49:35;;;;;;;10.07;3.88;;;;;;;6.24;78.02;101189.78;2080549;28;33401;-63
2022/04/22 02:50:39;;;;;;;6.80;3.55;;;;;;;6.23;78.89;101188.91;2080573;28;20080;-63
2022/04/22 02:51:41;;;;;;;14.93;4.20;;;;;;;6.21;78.37;101185.34;2088619;28;35225;-63
2022/04/22 02:52:42;;;;;;;5.75;3.60;;;;;;;6.21;78.69;101184.44;2087519;28;42953;-63
2022/04/22 02:53:44;;;;;;;8.77;3.80;;;;;;;6.18;78.71;101182.69;2079891;28;41515;-63
2022/04/22 02:54:46;;;;;;;6.22;3.75;;;;;;;6.17;79.26;101182.69;2078882;28;44667;-63
2022/04/22 02:55:51;;;;;;;8.75;3.67;;;;;;;6.16;79.14;101188.91;2079870;28;45356;-63
2022/04/22 02:56:53;;;;;;;8.90;4.30;;;;;;;6.15;78.66;101184.47;2080158;28;37269;-62
2022/04/22 02:57:54;;;;;;;9.57;4.22;;;;;;;6.13;79.10;101180.94;2079941;28;44137;-63
2022/04/22 02:58:57;;;;;;;7.10;4.25;;;;;;;6.13;79.67;101191.56;2080101;28;44463;-63
2022/04/22 02:59:58;;;;;;;6.60;3.55;;;;;;;6.12;79.99;101182.72;2088169;28;31269;-63
2022/04/22 03:01:00;;;;;;;10.15;3.70;;;;;;;6.08;78.87;101188.91;2087136;28;44716;-62
2022/04/22 03:02:02;;;;;;;8.57;3.70;;;;;;;6.08;78.79;101181.84;2079750;28;44475;-62
2022/04/22 03:03:05;;;;;;;9.63;4.25;;;;;;;6.08;79.13;101183.56;2080904;28;20180;-63
2022/04/22 03:04:06;;;;;;;10.70;4.20;;;;;;;6.07;79.59;101181.81;2088176;28;25022;-63
2022/04/22 03:05:10;;;;;;;6.15;4.10;;;;;;;6.04;79.57;101177.38;2087497;28;46158;-63
2022/04/22 03:06:12;;;;;;;6.72;3.95;;;;;;;5.99;79.73;101179.16;2080980;28;33276;-63
2022/04/22 03:07:14;;;;;;;8.55;3.83;;;;;;;5.95;79.80;101180.00;2079909;28;44066;-63
2022/04/22 03:08:16;;;;;;;10.13;4.22;;;;;;;5.95;80.01;101172.03;2080071;28;43454;-63
2022/04/22 03:09:18;;;;;;;8.25;4.38;;;;;;;5.95;79.31;101172.03;2080010;28;46820;-63
2022/04/22 03:10:20;;;;;;;8.30;4.28;;;;;;;5.93;80.29;101173.81;2087762;28;45127;-63
2022/04/22 03:11:21;;;;;;;7.47;4.63;;;;;;;5.92;80.24;101166.72;2080134;28;23909;-63
2022/04/22 03:12:23;;;;;;;9.75;4.20;;;;;;;5.94;80.43;101180.91;2080653;28;20792;-63
2022/04/22 03:13:25;;;;;;;9.85;4.15;;;;;;;5.92;80.26;101175.59;2079583;28;45812;-63
2022/04/22 03:14:29;;;;;;;6.95;4.18;;;;;;;5.91;80.49;101175.59;2080320;28;42760;-63
2022/04/22 03:15:33;;;;;;;10.07;4.40;;;;;;;5.90;80.15;101173.81;2079408;28;46411;-63
2022/04/22 03:16:35;;;;;;;7.18;4.00;;;;;;;5.88;79.37;101173.81;2080017;28;37298;-63
2022/04/22 03:17:37;;;;;;;7.53;4.45;;;;;;;5.87;79.63;101173.81;2080000;28;43638;-63
2022/04/22 03:18:38;;;;;;;9.93;4.28;;;;;;;5.85;79.38;101173.81;2080481;28;45008;-63
2022/04/22 03:19:40;;;;;;;7.15;4.50;;;;;;;5.85;79.66;101178.22;2079532;28;45336;-63
2022/04/22 03:20:42;;;;;;;10.45;3.97;;;;;;;5.84;80.40;101176.47;2080165;28;46133;-63
2022/04/22 03:21:47;;;;;;;7.35;4.18;;;;;;;5.82;80.06;101181.78;2079879;28;42319;-63
2022/04/22 03:22:49;;;;;;;8.48;4.38;;;;;;;5.79;79.82;101173.81;2080283;28;45081;-63
2022/04/22 03:23:50;;;;;;;8.07;4.53;;;;;;;5.76;80.25;101172.91;2080096;28;46740;-63
2022/04/22 03:24:52;;;;;;;12.73;4.80;;;;;;;5.77;80.38;101182.66;2088311;28;39734;-63
2022/04/22 03:25:54;;;;;;;8.05;4.20;;;;;;;5.73;80.95;101164.06;2087358;28;43406;-63
2022/04/22 03:26:57;;;;;;;9.25;4.63;;;;;;;5.73;81.25;101164.06;2081215;28;20160;-63
2022/04/22 03:27:58;;;;;;;10.80;4.65;;;;;;;5.70;80.63;101172.03;2079667;28;39135;-63
2022/04/22 03:29:00;;;;;;;7.47;4.20;;;;;;;5.68;80.72;101167.59;2079968;28;46345;-63
2022/04/22 03:30:05;;;;;;;7.72;4.70;;;;;;;5.69;81.67;101175.59;2081131;28;20088;-63
2022/04/22 03:31:07;;;;;;;10.60;4.70;;;;;;;5.64;81.68;101165.84;2079365;28;44887;-64
2022/04/22 03:32:11;;;;;;;8.15;4.72;;;;;;;5.62;81.41;101168.50;2079986;28;20042;-63
2022/04/22 03:33:13;;;;;;;8.70;4.50;;;;;;;5.65;81.81;101168.50;2080847;28;20092;-63
2022/04/22 03:34:15;;;;;;;10.80;4.53;;;;;;;5.62;81.78;101171.16;2079733;28;44928;-63
2022/04/22 03:35:17;;;;;;;10.07;4.90;;;;;;;5.64;81.07;101172.03;2080088;28;45231;-63
2022/04/22 03:36:18;;;;;;;9.68;4.93;;;;;;;5.61;82.02;101172.03;2079714;28;44428;-63
2022/04/22 03:37:23;;;;;;;9.45;4.65;;;;;;;5.56;81.28;101168.47;2080415;28;41858;-64
2022/04/22 03:38:27;;;;;;;10.82;5.13;;;;;;;5.56;81.54;101165.81;2079990;28;45282;-63
2022/04/22 03:39:31;;;;;;;9.18;4.50;;;;;;;5.53;81.25;101160.50;2080263;28;44963;-63
2022/04/22 03:40:33;;;;;;;11.25;5.13;;;;;;;5.54;81.93;101162.28;2080627;28;20159;-64
2022/04/22 03:41:39;;;;;;;7.60;4.80;;;;;;;5.49;81.61;101156.97;2081268;28;20038;-63
2022/04/22 03:42:41;;;;;;;8.25;4.68;;;;;;;5.49;82.82;101164.94;2078354;28;45744;-63
2022/04/22 03:43:43;;;;;;;13.10;6.00;;;;;;;5.45;82.34;101155.16;2080229;28;38465;-63
2022/04/22 03:44:44;;;;;;;8.93;5.05;;;;;;;5.46;81.96;101158.72;2079870;28;45435;-64
2022/04/22 03:45:48;;;;;;;10.32;5.22;;;;;;;5.44;81.97;101157.84;2080290;28;44300;-63
2022/04/22 03:46:50;;;;;;;12.05;5.30;;;;;;;5.43;82.77;101159.59;2079846;28;43967;-64
2022/04/22 03:47:52;;;;;;;8.40;4.85;;;;;;;5.42;82.86;101162.25;2080178;28;45155;-63
2022/04/22 03:48:55;;;;;;;9.00;4.82;;;;;;;5.40;82.69;101156.06;2080194;28;42321;-64
2022/04/22 03:49:57;;;;;;;9.70;5.20;;;;;;;5.39;83.10;101154.31;2079808;28;40327;-63
2022/04/22 03:50:58;;;;;;;11.77;5.80;;;;;;;5.35;83.51;101159.59;2078706;28;45685;-63
2022/04/22 03:52:00;;;;;;;9.27;5.07;;;;;;;5.37;83.46;101158.72;2079182;28;45037;-63
2022/04/22 03:53:05;;;;;;;10.43;5.78;;;;;;;5.35;82.71;101153.41;2079568;28;44809;-63
2022/04/22 03:54:07;;;;;;;8.88;5.07;;;;;;;5.35;83.51;101159.59;2087901;28;43122;-63
2022/04/22 03:55:09;;;;;;;8.48;5.82;;;;;;;5.38;83.06;101149.84;2087013;28;45041;-63
2022/04/22 03:58:57;;;;;;;10.98;5.43;;;;;;;5.34;83.75;101157.81;2080302;28;20042;-63
2022/04/22 03:59:59;;;;;;;11.32;5.72;;;;;;;5.34;83.22;101160.47;2079572;28;44318;-64
2022/04/22 04:01:01;;;;;;;9.68;5.50;;;;;;;5.34;83.36;101155.16;2087568;28;33718;-64
2022/04/22 04:02:03;;;;;;;7.40;5.18;;;;;;;5.34;83.12;101157.81;2087471;28;46099;-63
2022/04/22 04:03:11;;;;;;;9.85;5.38;;;;;;;5.31;83.17;101163.13;2079749;28;44275;-63
2022/04/22 04:04:13;;;;;;;10.65;5.63;;;;;;;5.30;83.92;101157.81;2080254;28;46348;-63
2022/04/22 04:05:15;;;;;;;13.65;5.72;;;;;;;5.32;84.05;101164.00;2079936;28;43068;-64
2022/04/22 04:06:17;;;;;;;10.27;5.55;;;;;;;5.28;83.58;101147.19;2087729;28;44484;-64
2022/04/22 04:07:19;;;;;;;11.13;5.93;;;;;;;5.28;83.48;101157.81;2086621;28;46651;-63
2022/04/22 04:08:24;;;;;;;12.70;6.10;;;;;;;5.24;84.12;101160.44;2080183;28;44529;-63
2022/04/22 04:16:14;;;;;;;;;;;;;;;5.26;83.54;101161.34;2086823;28;45604;-63
2022/04/22 04:17:16;;;;;;;9.90;5.47;;;;;;;5.27;82.93;101171.06;2084945;28;37627;-63
2022/04/22 04:18:18;;;;;;;11.25;5.85;;;;;;;5.25;83.52;101165.75;2079510;28;45133;-63
2022/04/22 04:23:20;;;;;;;12.07;5.07;;;;;;;5.26;83.91;101164.88;2080566;28;35976;-62
2022/04/22 04:24:22;;;;;;;12.20;5.20;;;;;;;5.27;82.65;101161.34;2086923;28;45262;-63
2022/04/22 04:25:24;;;;;;;9.43;5.65;;;;;;;5.27;82.61;101171.94;2087494;28;43988;-62
2022/04/22 04:26:26;;;;;;;11.77;4.75;;;;;;;5.26;83.41;101162.22;2079255;28;40153;-65
2022/04/22 04:27:29;;;;;;;10.05;5.25;;;;;;;5.26;83.10;101164.88;2080118;28;45408;-63
2022/04/22 04:28:32;;;;;;;9.65;5.88;;;;;;;5.27;83.86;101166.63;2079162;28;46046;-63
2022/04/22 04:29:34;;;;;;;10.90;5.18;;;;;;;5.28;82.66;101164.91;2080364;28;39649;-63
2022/04/22 04:30:38;;;;;;;8.57;4.72;;;;;;;5.28;83.33;101167.56;2087085;28;32309;-63
2022/04/22 04:31:39;;;;;;;9.35;5.45;;;;;;;5.30;83.12;101166.66;2086639;28;42086;-63
2022/04/22 04:32:41;;;;;;;8.68;5.07;;;;;;;5.42;82.89;101162.25;2078851;28;45998;-63
2022/04/22 04:33:44;;;;;;;7.85;4.70;;;;;;;5.61;81.94;101156.09;2079847;28;45079;-63
2022/04/22 04:34:51;;;;;;;11.25;5.63;;;;;;;5.78;80.77;101160.50;2078913;28;42236;-63
2022/04/22 04:35:55;;;;;;;8.18;4.57;;;;;;;5.93;79.66;101161.41;2080819;28;20080;-64
2022/04/22 04:36:58;;;;;;;7.03;4.00;;;;;;;6.22;78.77;101159.66;2080728;28;20105;-62
2022/04/22 04:38:00;;;;;;;9.27;4.72;;;;;;;6.42;78.65;101160.47;2079039;28;39111;-63
2022/04/22 04:39:02;;;;;;;7.78;3.95;;;;;;;6.55;77.65;101163.13;2078635;28;46962;-63
2022/04/22 04:40:05;;;;;;;8.98;3.92;;;;;;;6.54;77.67;101150.72;2088189;28;20053;-62
2022/04/22 04:41:09;;;;;;;7.82;4.10;;;;;;;6.77;76.81;101159.50;2086021;28;43360;-63
2022/04/22 04:42:10;;;;;;;8.38;4.25;;;;;;;6.88;75.25;101164.78;2079636;28;45494;-62
2022/04/22 04:43:12;;;;;;;8.45;4.00;;;;;;;6.97;74.68;101159.41;2078342;28;45629;-63
2022/04/22 04:44:14;;;;;;;7.20;3.75;;;;;;;7.10;74.54;101157.56;2079622;28;46233;-63
2022/04/22 04:45:15;;;;;;;5.57;3.63;;;;;;;7.22;74.52;101156.63;2079506;28;43094;-63
2022/04/22 04:46:17;;;;;;;6.75;3.50;;;;;;;7.19;74.22;101152.19;2081021;28;20922;-62
2022/04/22 04:47:19;;;;;;;7.75;3.92;;;;;;;7.33;73.72;101148.59;2079410;28;43646;-63
2022/04/22 04:48:22;;;;;;;6.70;3.38;;;;;;;7.59;72.78;101151.97;2087833;28;20045;-63
2022/04/22 04:49:23;;;;;;;5.95;3.35;;;;;;;7.74;72.51;101155.41;2086366;28;45257;-63
2022/04/22 04:50:25;;;;;;;5.53;3.00;;;;;;;7.89;71.91;101144.59;2079393;28;42950;-63
2022/04/22 04:51:27;;;;;;;7.03;3.78;;;;;;;7.95;70.62;101149.91;2078594;28;45553;-62
2022/04/22 04:52:29;;;;;;;4.78;3.10;;;;;;;8.37;70.17;101146.81;2080427;28;20049;-63
2022/04/22 04:53:32;;;;;;;8.80;3.50;;;;;;;8.29;69.58;101144.25;2080362;28;20041;-63
2022/04/22 04:54:33;;;;;;;6.50;3.17;;;;;;;8.22;69.21;101148.75;2079473;28;45049;-63
2022/04/22 04:55:35;;;;;;;5.25;2.92;;;;;;;8.41;68.43;101140.56;2079341;28;46285;-63
2022/04/22 04:56:37;;;;;;;6.82;3.08;;;;;;;8.64;67.95;101148.34;2079717;28;45400;-63
2022/04/22 04:57:39;;;;;;;6.03;3.03;;;;;;;8.75;67.84;101137.53;2079390;28;45132;-63
2022/04/22 04:58:43;;;;;;;6.15;2.97;;;;;;;8.74;67.07;101147.34;2087431;28;20201;-63
2022/04/22 04:59:48;;;;;;;7.05;2.90;;;;;;;8.98;67.65;101145.25;2086095;28;45697;-63
2022/04/22 05:00:49;;;;;;;6.05;2.90;;;;;;;8.87;66.76;101137.38;2079821;28;44663;-63
2022/04/22 05:01:51;;;;;;;6.07;2.83;;;;;;;8.91;66.36;101143.56;2079331;28;45329;-63
2022/04/22 05:02:55;;;;;;;6.57;2.90;;;;;;;8.97;66.53;101140.81;2079830;28;44783;-63
2022/04/22 05:04:01;;;;;;;5.05;2.95;;;;;;;9.05;66.05;101151.41;2079121;28;43269;-63
2022/04/22 05:05:05;;;;;;;7.90;2.95;;;;;;;9.41;65.10;101144.66;2087404;28;43933;-63
2022/04/22 05:06:09;;;;;;;5.55;2.97;;;;;;;9.22;66.50;101153.84;2086442;28;43707;-63
2022/04/22 05:07:11;;;;;;;5.50;2.90;;;;;;;9.55;63.22;101148.00;2079598;28;45012;-63
2022/04/22 05:08:13;;;;;;;7.38;2.88;;;;;;;9.71;63.81;101143.28;2078890;28;44794;-63
2022/04/22 05:09:14;;;;;;;6.43;2.45;;;;;;;10.08;62.16;101134.63;2079413;28;43285;-63
2022/04/22 05:10:18;;;;;;;5.82;2.58;;;;;;;9.91;63.08;101140.28;2079160;28;44268;-63
2022/04/22 05:11:20;;;;;;;4.25;2.40;;;;;;;9.93;62.48;101145.63;2079336;28;44797;-63
2022/04/22 05:12:21;;;;;;;5.60;2.40;;;;;;;9.78;63.39;101144.09;2078473;28;45676;-63
2022/04/22 05:13:23;;;;;;;8.30;2.78;;;;;;;10.05;62.21;101141.81;2079496;28;44932;-64
2022/04/22 05:14:26;;;;;;;5.80;2.50;;;;;;;10.03;62.92;101138.31;2079371;28;44431;-63
2022/04/22 05:15:28;;;;;;;5.07;2.42;;;;;;;10.61;61.56;101137.25;2079422;28;45563;-63
2022/04/22 05:16:30;;;;;;;4.28;2.50;;;;;;;10.54;60.41;101140.97;2079948;28;20038;-62
2022/04/22 05:17:32;;;;;;;7.43;2.20;;;;;;;10.27;62.01;101148.56;2079189;28;44813;-62
2022/04/22 05:18:36;;;;;;;5.15;2.22;;;;;;;10.28;60.77;101136.97;2079588;28;20107;-63